Terminal Aerodrome Forecast
Issued by NWS

Home | Current Version | Previous Version | Graphics & Text | Print | Product List | Glossary On
Versions: 1 2 3 4 5 6 7 8 9 10 11 12 13 14
000
FTUS42 KMHX 251439 AAA
TAFPGV
TAF AMD
KPGV 251439Z 2515/2612 22015G20KT P6SM SCT050
     FM251800 23015G25KT P6SM VCSH BKN050
      TEMPO 2518/2521 24020G35KT 4SM TS OVC025CB
     FM252300 24010KT P6SM BKN090
     FM260200 24010KT P6SM SCT050 SCT250
      AMD LTD TO CLD VIS AND WIND=

USA.gov is the U.S. government's official web portal to all federal, state and local government web resources and services.